createdAt,value
2022-10-07T00:02:26.307Z,8.95
2022-10-07T00:04:53.180Z,9.02
2022-10-07T00:07:21.044Z,9.19
2022-10-07T00:09:47.927Z,9.29
2022-10-07T00:12:14.804Z,9.39
2022-10-07T00:14:42.677Z,9.45
2022-10-07T00:17:09.550Z,9.45
2022-10-07T00:19:36.497Z,9.48
2022-10-07T00:22:03.365Z,9.50
2022-10-07T00:24:30.209Z,9.54
2022-10-07T00:26:57.187Z,9.59
2022-10-07T00:29:24.417Z,9.64
2022-10-07T00:31:56.935Z,9.66
2022-10-07T00:34:24.966Z,9.64
2022-10-07T00:36:51.833Z,9.64
2022-10-07T00:39:18.783Z,9.62
2022-10-07T00:41:51.885Z,9.56
2022-10-07T00:44:54.174Z,9.42
2022-10-07T00:47:25.740Z,9.25
2022-10-07T00:49:55.305Z,9.15
2022-10-07T00:52:26.605Z,9.06
2022-10-07T00:54:56.634Z,8.98
2022-10-07T00:57:27.738Z,8.95
2022-10-07T00:59:57.211Z,8.87
2022-10-07T01:02:25.998Z,8.76
2022-10-07T01:04:54.738Z,8.83
2022-10-07T01:07:21.992Z,8.90
2022-10-07T01:09:51.518Z,8.94
2022-10-07T01:12:51.641Z,9.03
2022-10-07T01:15:30.467Z,8.86
2022-10-07T01:18:18.914Z,8.80
2022-10-07T01:21:08.984Z,8.82
2022-10-07T01:23:53.142Z,8.74
2022-10-07T01:26:37.843Z,8.66
2022-10-07T01:29:26.951Z,8.62
2022-10-07T01:32:05.022Z,8.73
2022-10-07T01:34:36.020Z,8.85
2022-10-07T01:37:06.772Z,8.85
2022-10-07T01:39:47.899Z,8.79
2022-10-07T01:42:16.152Z,8.71
2022-10-07T01:44:45.686Z,8.61
2022-10-07T01:47:12.590Z,8.49
2022-10-07T01:49:40.789Z,8.44
2022-10-07T01:52:33.216Z,8.46
2022-10-07T01:55:12.464Z,8.43
2022-10-07T01:57:48.223Z,8.47
2022-10-07T02:00:17.012Z,8.51
2022-10-07T02:03:37.650Z,8.47
2022-10-07T02:06:45.015Z,8.52
2022-10-07T02:09:27.676Z,8.53
2022-10-07T02:12:06.907Z,8.56
2022-10-07T02:14:46.253Z,8.65
2022-10-07T02:17:18.353Z,8.65
2022-10-07T02:19:49.995Z,8.56
2022-10-07T02:22:19.161Z,8.53
2022-10-07T02:24:49.401Z,8.52
2022-10-07T02:27:22.571Z,8.53
2022-10-07T02:29:57.449Z,8.62
2022-10-07T02:32:26.927Z,8.64
2022-10-07T02:34:59.268Z,8.65
2022-10-07T02:37:31.299Z,8.55
2022-10-07T02:39:58.782Z,8.55
2022-10-07T02:42:51.912Z,8.42
2022-10-07T02:45:26.953Z,8.28
2022-10-07T02:48:22.075Z,8.28
2022-10-07T02:50:55.455Z,8.38
2022-10-07T02:53:27.180Z,8.46
2022-10-07T02:55:56.786Z,8.48
2022-10-07T02:58:26.683Z,8.51
2022-10-07T03:00:59.390Z,8.55
2022-10-07T03:03:27.925Z,8.62
2022-10-07T03:05:59.662Z,8.62
2022-10-07T03:08:28.055Z,8.58
2022-10-07T03:10:56.093Z,8.52
2022-10-07T03:13:25.002Z,8.47
2022-10-07T03:15:56.691Z,8.41
2022-10-07T03:18:27.297Z,8.38
2022-10-07T03:21:16.329Z,8.43
2022-10-07T03:23:43.974Z,8.49
2022-10-07T03:26:12.282Z,8.53
2022-10-07T03:28:39.306Z,8.59
2022-10-07T03:31:08.901Z,8.71
2022-10-07T03:33:38.843Z,8.66
2022-10-07T03:36:09.011Z,8.69
2022-10-07T03:38:37.751Z,8.65
2022-10-07T03:41:05.100Z,8.71
2022-10-07T03:43:33.185Z,8.75
2022-10-07T03:46:02.577Z,8.76
2022-10-07T03:48:32.234Z,8.65
2022-10-07T03:50:59.525Z,8.63
2022-10-07T03:53:29.802Z,8.68
2022-10-07T03:55:58.560Z,8.74
2022-10-07T03:58:25.889Z,8.72
2022-10-07T04:00:52.829Z,8.74
2022-10-07T04:03:20.082Z,8.93
2022-10-07T04:05:59.768Z,8.90
2022-10-07T04:08:29.679Z,8.88
2022-10-07T04:10:57.421Z,8.91
2022-10-07T04:13:24.791Z,8.88
2022-10-07T04:15:53.354Z,8.88
2022-10-07T04:18:22.393Z,8.81
2022-10-07T04:20:52.857Z,8.68
2022-10-07T04:23:20.834Z,8.78
2022-10-07T04:25:47.837Z,8.76
2022-10-07T04:28:27.288Z,8.75
2022-10-07T04:31:08.908Z,8.76
2022-10-07T04:33:41.047Z,8.84
2022-10-07T04:36:10.628Z,8.89
2022-10-07T04:38:50.453Z,9.00
2022-10-07T04:41:20.086Z,9.15
2022-10-07T04:43:55.303Z,9.26
2022-10-07T04:46:25.491Z,9.43
2022-10-07T04:48:59.773Z,9.61
2022-10-07T04:51:28.104Z,9.74
2022-10-07T04:53:58.189Z,9.87
2022-10-07T04:56:34.359Z,9.97
2022-10-07T04:59:05.905Z,10.10
2022-10-07T05:01:33.407Z,10.21
2022-10-07T05:04:00.320Z,10.35
2022-10-07T05:06:27.765Z,10.55
2022-10-07T05:08:54.838Z,10.73
2022-10-07T05:11:23.463Z,10.82
2022-10-07T05:14:06.745Z,10.92
2022-10-07T05:16:35.038Z,10.91
2022-10-07T05:19:03.806Z,10.86
2022-10-07T05:21:30.939Z,10.87
2022-10-07T05:23:59.197Z,10.86
2022-10-07T05:26:32.520Z,10.90
2022-10-07T05:29:02.928Z,10.91
2022-10-07T05:31:37.173Z,10.93
2022-10-07T05:34:06.022Z,10.94
2022-10-07T05:36:34.063Z,11.05
2022-10-07T05:39:02.433Z,11.15
2022-10-07T05:41:45.185Z,11.32
2022-10-07T05:44:14.184Z,11.49
2022-10-07T05:46:42.295Z,11.66
2022-10-07T05:49:09.750Z,11.75
2022-10-07T05:51:36.998Z,11.74
2022-10-07T05:54:04.456Z,11.68
2022-10-07T05:56:37.916Z,11.66
2022-10-07T05:59:05.092Z,11.67
2022-10-07T06:01:32.623Z,11.68
2022-10-07T06:04:07.026Z,11.67
2022-10-07T06:06:36.621Z,11.67
2022-10-07T06:09:26.014Z,11.75
2022-10-07T06:12:12.267Z,11.86
2022-10-07T06:14:39.894Z,11.99
2022-10-07T06:17:08.324Z,12.15
2022-10-07T06:19:37.857Z,12.10
2022-10-07T06:22:05.452Z,12.11
2022-10-07T06:24:35.299Z,12.02
2022-10-07T06:27:02.920Z,11.96
2022-10-07T06:29:30.630Z,11.95
2022-10-07T06:31:58.052Z,11.98
2022-10-07T06:34:24.931Z,12.00
2022-10-07T06:36:53.947Z,12.05
2022-10-07T06:39:20.855Z,12.02
2022-10-07T06:41:48.198Z,12.01
2022-10-07T06:44:44.377Z,12.04
2022-10-07T06:47:16.151Z,12.04
2022-10-07T06:49:44.986Z,12.02
2022-10-07T06:52:12.637Z,12.02
2022-10-07T06:54:41.113Z,12.05
2022-10-07T06:57:26.399Z,12.11
2022-10-07T06:59:55.813Z,12.38
2022-10-07T07:02:25.663Z,12.73
2022-10-07T07:04:57.675Z,13.19
2022-10-07T07:07:26.422Z,13.77
2022-10-07T07:09:53.992Z,14.15
2022-10-07T07:12:25.449Z,14.66
2022-10-07T07:14:54.674Z,14.94
2022-10-07T07:17:22.031Z,15.20
2022-10-07T07:19:48.907Z,15.28
2022-10-07T07:22:16.571Z,15.36
2022-10-07T07:24:44.103Z,15.59
2022-10-07T07:27:12.303Z,15.71
2022-10-07T07:29:39.203Z,15.64
2022-10-07T07:32:06.368Z,15.82
2022-10-07T07:34:38.312Z,15.80
2022-10-07T07:37:07.777Z,15.71
2022-10-07T07:39:40.430Z,15.75
2022-10-07T07:42:10.621Z,16.01
2022-10-07T07:44:39.082Z,15.99
2022-10-07T07:47:10.218Z,16.10
2022-10-07T07:49:38.341Z,16.06
2022-10-07T07:52:07.923Z,16.02
2022-10-07T07:54:42.061Z,16.08
2022-10-07T07:57:09.817Z,16.26
2022-10-07T07:59:37.496Z,16.42
2022-10-07T08:02:06.401Z,16.62
2022-10-07T08:04:34.838Z,16.73
2022-10-07T08:07:02.135Z,16.69
2022-10-07T08:09:29.588Z,16.99
2022-10-07T08:11:57.461Z,16.94
2022-10-07T08:14:24.624Z,16.93
2022-10-07T08:16:55.703Z,16.85
2022-10-07T08:19:22.801Z,16.86
2022-10-07T08:21:49.953Z,17.11
2022-10-07T08:24:25.170Z,16.97
2022-10-07T08:26:53.758Z,17.06
2022-10-07T08:29:21.457Z,17.23
2022-10-07T08:31:49.427Z,17.27
2022-10-07T08:34:16.406Z,17.55
2022-10-07T08:36:47.467Z,17.56
2022-10-07T08:39:15.396Z,17.88
2022-10-07T08:42:13.623Z,17.73
2022-10-07T08:44:44.611Z,17.88
2022-10-07T08:47:17.588Z,18.04
2022-10-07T08:49:50.005Z,17.99
2022-10-07T08:52:39.180Z,18.60
2022-10-07T08:55:18.822Z,17.99
2022-10-07T08:57:48.686Z,18.04
2022-10-07T09:00:20.389Z,18.48
2022-10-07T09:03:24.937Z,18.20
2022-10-07T09:05:55.760Z,18.21
2022-10-07T09:08:28.750Z,18.16
2022-10-07T09:11:02.425Z,18.14
2022-10-07T09:13:40.509Z,18.37
2022-10-07T09:16:40.313Z,18.37
2022-10-07T09:19:17.593Z,18.54
2022-10-07T09:21:51.430Z,18.63
2022-10-07T09:24:28.318Z,18.61
2022-10-07T09:26:58.570Z,18.66
2022-10-07T09:29:27.481Z,18.70
2022-10-07T09:31:55.481Z,18.76
2022-10-07T09:34:31.070Z,18.80
2022-10-07T09:37:15.424Z,18.88
2022-10-07T09:39:44.508Z,19.08
2022-10-07T09:42:35.390Z,18.87
2022-10-07T10:16:28.959Z,19.24
2022-10-07T10:19:04.083Z,19.40
2022-10-07T10:21:40.887Z,19.33
2022-10-07T10:24:48.316Z,19.58
2022-10-07T10:27:34.973Z,19.42
2022-10-07T10:30:06.746Z,19.44
2022-10-07T10:33:18.509Z,19.57
2022-10-07T10:35:56.504Z,19.51
2022-10-07T10:38:53.508Z,19.83
2022-10-07T10:41:41.482Z,20.12
2022-10-07T10:44:10.871Z,20.00
2022-10-07T10:47:00.284Z,19.81
2022-10-07T10:49:38.793Z,20.16
2022-10-07T10:52:27.232Z,19.84
2022-10-07T10:55:18.289Z,20.58
2022-10-07T10:58:08.537Z,19.96
2022-10-07T11:00:50.479Z,19.90
2022-10-07T11:03:34.325Z,20.01
2022-10-07T11:06:07.824Z,19.93
2022-10-07T11:08:38.660Z,20.01
2022-10-07T11:11:12.259Z,20.18
2022-10-07T11:14:03.718Z,20.09
2022-10-07T11:16:51.275Z,19.91
2022-10-07T11:19:29.410Z,19.91
2022-10-07T11:22:00.820Z,19.90
2022-10-07T11:24:57.153Z,19.95
2022-10-07T11:27:29.715Z,20.08
2022-10-07T11:30:23.212Z,20.08
2022-10-07T11:33:05.405Z,20.47
2022-10-07T11:35:36.374Z,20.12
2022-10-07T11:38:15.338Z,20.20
2022-10-07T11:40:53.734Z,20.22
2022-10-07T11:43:34.783Z,19.96
2022-10-07T11:46:14.512Z,20.13
2022-10-07T11:48:50.477Z,20.03
2022-10-07T11:51:27.238Z,20.50
2022-10-07T11:53:57.997Z,20.17
2022-10-07T11:56:27.059Z,20.07
2022-10-07T11:59:00.993Z,20.23
2022-10-07T12:01:29.025Z,20.05
2022-10-07T12:04:02.207Z,20.25
2022-10-07T12:06:29.124Z,19.90
2022-10-07T12:08:56.022Z,20.20
2022-10-07T12:11:22.925Z,20.33
2022-10-07T12:13:51.926Z,20.57
2022-10-07T12:16:24.787Z,20.55
2022-10-07T12:19:23.342Z,20.47
2022-10-07T12:21:59.837Z,20.37
2022-10-07T12:24:28.175Z,20.58
2022-10-07T12:27:17.749Z,20.05
2022-10-07T12:29:48.619Z,20.41
2022-10-07T12:32:53.140Z,20.51
2022-10-07T12:35:36.789Z,20.46
2022-10-07T12:38:13.847Z,20.32
2022-10-07T12:40:42.630Z,20.25
2022-10-07T12:43:34.468Z,20.13
2022-10-07T12:46:06.092Z,20.03
2022-10-07T12:48:42.016Z,20.19
2022-10-07T12:51:19.840Z,20.18
2022-10-07T12:53:49.108Z,20.18
2022-10-07T12:56:26.550Z,20.51
2022-10-07T12:59:21.141Z,20.49
2022-10-07T13:01:50.961Z,20.50
2022-10-07T13:04:47.972Z,20.08
2022-10-07T13:07:30.003Z,20.06
2022-10-07T13:10:14.891Z,20.27
2022-10-07T13:13:25.063Z,20.12
2022-10-07T13:16:17.415Z,20.23
2022-10-07T13:18:52.783Z,20.09
2022-10-07T13:21:29.492Z,20.06
2022-10-07T13:23:56.954Z,19.82
2022-10-07T13:26:26.067Z,19.94
2022-10-07T13:28:58.542Z,19.91
2022-10-07T13:31:31.817Z,19.94
2022-10-07T13:34:16.547Z,19.98
2022-10-07T13:36:43.849Z,20.36
2022-10-07T13:39:19.727Z,19.98
2022-10-07T13:41:49.110Z,19.87
2022-10-07T13:44:19.516Z,19.94
2022-10-07T13:47:04.932Z,19.95
2022-10-07T13:49:43.717Z,20.08
2022-10-07T13:52:47.558Z,19.88
2022-10-07T13:55:30.769Z,19.89
2022-10-07T13:58:02.003Z,19.82
2022-10-07T14:00:32.503Z,19.98
2022-10-07T14:03:01.951Z,19.85
2022-10-07T14:05:31.334Z,20.03
2022-10-07T14:08:14.181Z,19.82
2022-10-07T14:10:56.400Z,20.03
2022-10-07T14:13:23.510Z,19.91
2022-10-07T14:15:54.529Z,19.75
2022-10-07T14:18:22.245Z,19.50
2022-10-07T14:20:55.609Z,19.72
2022-10-07T14:23:28.508Z,19.45
2022-10-07T14:26:04.341Z,19.37
2022-10-07T14:28:33.791Z,19.48
2022-10-07T14:31:25.479Z,19.22
2022-10-07T14:34:32.994Z,19.14
2022-10-07T14:37:20.101Z,19.17
2022-10-07T14:39:49.557Z,19.17
2022-10-07T14:42:35.893Z,19.12
2022-10-07T14:45:08.379Z,18.99
2022-10-07T14:47:38.020Z,19.03
2022-10-07T14:50:05.340Z,19.03
2022-10-07T14:52:52.602Z,19.05
2022-10-07T14:55:26.514Z,18.88
2022-10-07T14:57:54.224Z,19.23
2022-10-07T15:00:23.598Z,19.09
2022-10-07T15:02:50.936Z,18.73
2022-10-07T15:05:19.235Z,18.96
2022-10-07T15:07:46.358Z,19.08
2022-10-07T15:10:16.530Z,18.82
2022-10-07T15:12:44.425Z,18.75
2022-10-07T15:15:12.902Z,18.39
2022-10-07T15:17:41.015Z,18.42
2022-10-07T15:20:10.599Z,18.23
2022-10-07T15:22:38.239Z,18.13
2022-10-07T15:25:06.782Z,17.87
2022-10-07T15:27:33.976Z,17.88
2022-10-07T15:30:01.037Z,17.62
2022-10-07T15:32:30.701Z,17.57
2022-10-07T15:34:57.910Z,17.49
2022-10-07T15:37:27.982Z,17.37
2022-10-07T15:39:55.097Z,17.37
2022-10-07T15:42:24.630Z,17.17
2022-10-07T15:44:52.309Z,17.19
2022-10-07T15:47:19.654Z,16.97
2022-10-07T15:49:46.675Z,16.95
2022-10-07T15:52:13.604Z,17.34
2022-10-07T15:54:40.559Z,17.02
2022-10-07T15:57:08.511Z,17.19
2022-10-07T15:59:35.888Z,17.20
2022-10-07T16:02:04.507Z,16.95
2022-10-07T16:04:32.142Z,16.68
2022-10-07T16:06:59.659Z,16.66
2022-10-07T16:09:26.843Z,16.45
2022-10-07T16:11:54.235Z,16.17
2022-10-07T16:14:21.130Z,15.99
2022-10-07T16:16:48.050Z,15.74
2022-10-07T16:19:15.008Z,15.47
2022-10-07T16:21:43.051Z,15.41
2022-10-07T16:24:23.742Z,15.38
2022-10-07T16:26:51.008Z,15.26
2022-10-07T16:29:41.270Z,15.09
2022-10-07T16:32:12.876Z,15.01
2022-10-07T16:34:43.512Z,14.96
2022-10-07T16:37:11.991Z,14.97
2022-10-07T16:39:38.966Z,14.96
2022-10-07T16:42:06.057Z,14.94
2022-10-07T16:44:33.010Z,14.91
2022-10-07T16:47:00.787Z,14.95
2022-10-07T16:49:30.368Z,14.89
2022-10-07T16:51:58.260Z,14.82
2022-10-07T16:54:25.490Z,14.76
2022-10-07T16:56:53.087Z,14.70
2022-10-07T16:59:24.709Z,14.67
2022-10-07T17:01:56.910Z,14.63
2022-10-07T17:04:25.430Z,14.64
2022-10-07T17:06:53.205Z,14.66
2022-10-07T17:09:21.915Z,14.58
2022-10-07T17:11:48.962Z,14.63
2022-10-07T17:14:18.790Z,14.56
2022-10-07T17:16:48.588Z,14.54
2022-10-07T17:19:18.239Z,14.58
2022-10-07T17:21:47.772Z,14.55
2022-10-07T17:24:18.612Z,14.47
2022-10-07T17:26:46.069Z,14.36
2022-10-07T17:29:15.159Z,14.30
2022-10-07T17:31:43.623Z,14.20
2022-10-07T17:34:11.961Z,14.20
2022-10-07T17:36:40.645Z,14.11
2022-10-07T17:39:08.038Z,14.10
2022-10-07T17:41:37.573Z,14.05
2022-10-07T17:44:10.589Z,14.04
2022-10-07T17:46:39.463Z,13.93
2022-10-07T17:49:08.681Z,13.79
2022-10-07T17:51:37.367Z,13.70
2022-10-07T17:54:06.219Z,13.59
2022-10-07T17:56:34.800Z,13.53
2022-10-07T17:59:02.313Z,13.49
2022-10-07T18:01:34.163Z,13.45
2022-10-07T18:04:03.721Z,13.31
2022-10-07T18:06:33.939Z,13.29
2022-10-07T18:09:04.660Z,13.18
2022-10-07T18:11:50.643Z,13.06
2022-10-07T18:14:57.087Z,13.01
2022-10-07T18:17:24.800Z,12.98
2022-10-07T18:19:51.884Z,12.99
2022-10-07T18:22:19.454Z,13.03
2022-10-07T18:24:46.365Z,13.06
2022-10-07T18:27:13.652Z,13.03
2022-10-07T18:29:40.640Z,12.80
2022-10-07T18:32:07.703Z,12.58
2022-10-07T18:34:34.976Z,12.53
2022-10-07T18:37:02.046Z,12.52
2022-10-07T18:39:29.789Z,12.44
2022-10-07T18:41:58.388Z,12.38
2022-10-07T18:44:26.005Z,12.37
2022-10-07T18:46:53.566Z,12.34
2022-10-07T18:49:20.599Z,12.36
2022-10-07T18:51:50.557Z,12.45
2022-10-07T18:54:21.399Z,12.45
2022-10-07T18:56:49.631Z,12.31
2022-10-07T18:59:20.208Z,12.28
2022-10-07T19:01:50.432Z,12.32
2022-10-07T19:04:18.975Z,12.25
2022-10-07T19:06:46.606Z,12.17
2022-10-07T19:09:19.856Z,12.16
2022-10-07T19:11:47.318Z,12.11
2022-10-07T19:14:14.770Z,12.07
2022-10-07T19:16:49.126Z,12.11
2022-10-07T19:19:19.422Z,12.01
2022-10-07T19:21:54.886Z,11.98
2022-10-07T19:24:42.725Z,11.92
2022-10-07T19:27:09.690Z,11.96
2022-10-07T19:29:36.642Z,12.06
2022-10-07T19:32:08.043Z,12.10
2022-10-07T19:34:35.325Z,12.13
2022-10-07T19:37:02.263Z,12.11
2022-10-07T19:39:29.222Z,12.19
2022-10-07T19:41:57.578Z,12.21
2022-10-07T19:44:24.888Z,12.24
2022-10-07T19:46:54.286Z,12.23
2022-10-07T19:49:21.311Z,12.25
2022-10-07T19:51:48.214Z,12.34
2022-10-07T19:54:15.211Z,12.40
2022-10-07T19:56:42.246Z,12.38
2022-10-07T19:59:11.688Z,12.36
2022-10-07T20:01:43.997Z,12.35
2022-10-07T20:04:16.442Z,12.32
2022-10-07T20:06:43.915Z,12.28
2022-10-07T20:09:14.411Z,12.20
2022-10-07T20:11:41.642Z,12.17
2022-10-07T20:14:10.122Z,12.18
2022-10-07T20:16:38.314Z,12.17
2022-10-07T20:19:07.955Z,11.99
2022-10-07T20:21:37.764Z,11.89
2022-10-07T20:24:05.972Z,11.67
2022-10-07T20:26:38.570Z,11.57
2022-10-07T20:29:10.161Z,11.46
2022-10-07T20:31:39.383Z,11.24
2022-10-07T20:34:08.863Z,11.12
2022-10-07T20:36:37.533Z,10.98
2022-10-07T20:39:32.447Z,11.08
2022-10-07T20:42:17.891Z,10.85
2022-10-07T20:44:47.180Z,10.55
2022-10-07T20:47:14.158Z,10.32
2022-10-07T20:49:42.290Z,10.25
2022-10-07T20:52:16.904Z,10.40
2022-10-07T20:54:44.861Z,10.40
2022-10-07T20:57:13.639Z,10.39
2022-10-07T20:59:40.589Z,10.32
2022-10-07T21:02:09.711Z,10.38
2022-10-07T21:04:36.971Z,10.28
2022-10-07T21:07:03.868Z,10.20
2022-10-07T21:09:36.504Z,10.17
2022-10-07T21:12:07.662Z,10.16
2022-10-07T21:14:37.749Z,10.42
2022-10-07T21:17:05.459Z,10.53
2022-10-07T21:19:33.048Z,10.64
2022-10-07T21:22:00.018Z,10.63
2022-10-07T21:24:26.926Z,10.58
2022-10-07T21:26:53.782Z,10.40
2022-10-07T21:29:20.646Z,10.34
2022-10-07T21:31:47.482Z,10.38
2022-10-07T21:34:14.349Z,10.43
2022-10-07T21:36:50.428Z,10.35
2022-10-07T21:39:20.117Z,10.24
2022-10-07T21:41:48.184Z,10.12
2022-10-07T21:44:15.472Z,9.97
2022-10-07T21:46:42.947Z,9.87
2022-10-07T21:49:10.085Z,9.92
2022-10-07T21:51:38.157Z,9.91
2022-10-07T21:54:05.683Z,9.87
2022-10-07T21:56:33.425Z,9.86
2022-10-07T21:59:01.673Z,9.98
2022-10-07T22:01:29.106Z,9.99
2022-10-07T22:03:58.655Z,9.99
2022-10-07T22:06:45.404Z,9.97
2022-10-07T22:09:14.455Z,10.08
2022-10-07T22:11:41.767Z,10.14
2022-10-07T22:14:12.593Z,10.13
2022-10-07T22:16:40.647Z,10.11
2022-10-07T22:19:07.835Z,10.11
2022-10-07T22:21:39.291Z,10.08
2022-10-07T22:24:07.954Z,10.07
2022-10-07T22:26:42.182Z,10.04
2022-10-07T22:29:10.210Z,9.99
2022-10-07T22:31:37.850Z,10.02
2022-10-07T22:34:06.380Z,10.08
2022-10-07T22:36:33.546Z,10.08
2022-10-07T22:39:00.593Z,10.04
2022-10-07T22:41:28.148Z,10.12
2022-10-07T22:43:55.248Z,10.16
2022-10-07T22:46:28.456Z,10.23
2022-10-07T22:48:58.273Z,10.30
2022-10-07T22:51:28.624Z,10.33
2022-10-07T22:53:56.949Z,10.38
2022-10-07T22:56:25.856Z,10.35
2022-10-07T22:58:58.146Z,10.38
2022-10-07T23:01:29.598Z,10.32
2022-10-07T23:04:00.973Z,10.27
2022-10-07T23:06:28.187Z,10.22
2022-10-07T23:08:56.400Z,10.16
2022-10-07T23:11:25.670Z,10.13
2022-10-07T23:13:54.619Z,10.08
2022-10-07T23:16:26.130Z,9.99
2022-10-07T23:18:53.710Z,9.95
2022-10-07T23:21:26.231Z,9.93
2022-10-07T23:23:56.765Z,9.95
2022-10-07T23:26:27.144Z,9.98
2022-10-07T23:28:56.674Z,10.04
2022-10-07T23:31:27.478Z,10.12
2022-10-07T23:33:56.073Z,10.18
2022-10-07T23:36:25.101Z,10.25
2022-10-07T23:38:52.794Z,10.28
2022-10-07T23:41:22.233Z,10.32
2022-10-07T23:43:50.646Z,10.29
2022-10-07T23:46:19.480Z,10.22
2022-10-07T23:48:47.172Z,10.22
2022-10-07T23:51:19.416Z,10.16
2022-10-07T23:53:47.445Z,10.13
2022-10-07T23:56:14.747Z,10.11
2022-10-07T23:58:41.719Z,10.08
